Time;durP1;ratioP1;P1;durP2;ratioP2;P2;SDS_P1;SDS_P2;PMS_P1;PMS_P2;Temp;Humidity;BMP_temperature;BMP_pressure;BME280_temperature;BME280_humidity;BME280_pressure;Samples;Min_cycle;Max_cycle;Signal;HPM_P1;HPM_P2
2024/02/01 00:00:56;;;;;;;1.38;1.00;;;5.70;99.90;;;5.71;83.92;101532.53;6194584;23;20183;-65
2024/02/01 00:03:25;;;;;;;1.35;0.80;;;5.70;99.90;;;5.71;83.84;101529.84;6197014;23;20181;-65
2024/02/01 00:05:53;;;;;;;3.50;2.00;;;5.70;99.90;;;5.68;83.25;101526.47;6196655;23;20616;-64
2024/02/01 00:08:22;;;;;;;2.38;1.30;;;5.70;99.90;;;5.72;83.31;101526.97;6197199;23;20188;-64
2024/02/01 00:10:52;;;;;;;2.50;1.63;;;5.70;99.90;;;5.65;83.40;101509.81;6197084;23;20222;-65
2024/02/01 00:13:21;;;;;;;1.65;1.27;;;5.60;99.90;;;5.61;84.23;101500.41;6196684;23;20161;-63
2024/02/01 00:15:50;;;;;;;2.08;1.75;;;5.60;99.90;;;5.66;83.50;101496.22;6197202;23;20165;-65
2024/02/01 00:18:18;;;;;;;1.35;1.15;;;5.60;99.90;;;5.56;84.15;101490.13;6195352;23;20206;-64
2024/02/01 00:20:47;;;;;;;2.00;1.35;;;5.60;99.90;;;5.60;83.50;101487.97;6197082;23;20176;-65
2024/02/01 00:23:15;;;;;;;4.60;2.28;;;5.60;99.90;;;5.62;83.28;101484.09;6198778;23;20520;-66
2024/02/01 00:25:44;;;;;;;1.65;1.55;;;5.60;99.90;;;5.64;83.17;101492.88;6195176;23;20565;-65
2024/02/01 00:28:14;;;;;;;2.60;1.42;;;5.60;99.90;;;5.54;83.47;101486.72;6194931;23;20268;-65
2024/02/01 00:30:42;;;;;;;2.38;1.35;;;5.50;99.90;;;5.61;83.12;101471.72;6195224;23;20245;-59
2024/02/01 00:33:11;;;;;;;2.15;1.65;;;5.60;99.90;;;5.53;83.36;101473.47;6194867;23;20206;-62
2024/02/01 00:35:40;;;;;;;1.98;1.88;;;5.50;99.90;;;5.65;82.85;101469.53;6194257;23;20234;-64
2024/02/01 00:38:09;;;;;;;1.42;1.33;;;5.60;99.90;;;5.61;83.10;101474.38;6194040;23;20566;-63
2024/02/01 00:40:37;;;;;;;3.70;2.15;;;5.60;99.90;;;5.68;82.59;101472.75;6194731;23;20156;-65
2024/02/01 00:43:07;;;;;;;2.67;1.48;;;5.60;99.90;;;5.69;81.93;101463.69;6192910;23;20177;-62
2024/02/01 00:45:37;;;;;;;1.60;1.50;;;5.70;99.90;;;5.65;82.18;101462.34;6194593;23;20161;-66
2024/02/01 00:48:06;;;;;;;1.98;1.88;;;5.60;99.90;;;5.71;82.41;101450.13;6194767;23;20181;-64
2024/02/01 00:50:35;;;;;;;2.85;1.42;;;5.70;99.90;;;5.74;82.48;101454.31;6194931;23;20149;-64
2024/02/01 00:53:11;;;;;;;2.05;1.40;;;5.70;99.90;;;5.81;81.92;101466.13;6190734;23;20165;-63
2024/02/01 00:55:41;;;;;;;1.25;0.93;;;5.70;99.90;;;5.80;81.65;101448.34;6187392;23;20644;-65
2024/02/01 00:58:09;;;;;;;3.65;3.20;;;5.70;99.90;;;5.68;82.24;101451.25;6187550;23;20678;-64
2024/02/01 01:00:42;;;;;;;1.10;0.60;;;5.70;99.90;;;5.72;81.54;101448.25;6188114;23;20211;-64
2024/02/01 01:03:11;;;;;;;2.78;2.13;;;5.70;99.90;;;5.80;81.82;101442.97;6187788;23;20644;-63
2024/02/01 01:05:40;;;;;;;2.13;1.35;;;5.70;99.90;;;5.81;81.85;101433.91;6188239;23;20212;-64
2024/02/01 01:08:09;;;;;;;1.63;1.52;;;5.80;99.90;;;5.63;82.73;101429.41;6189108;23;20210;-64
2024/02/01 01:10:38;;;;;;;1.55;1.08;;;5.70;99.90;;;5.67;82.00;101430.78;6188255;23;20652;-64
2024/02/01 01:13:07;;;;;;;2.15;1.25;;;5.70;99.90;;;5.69;82.20;101430.63;6160859;23;20168;-64
2024/02/01 01:15:35;;;;;;;1.55;1.45;;;5.60;99.90;;;5.73;81.58;101420.41;6188384;23;20211;-62
2024/02/01 01:18:07;;;;;;;4.10;2.22;;;5.70;99.90;;;5.71;81.94;101428.66;6186992;23;20561;-61
2024/02/01 01:20:36;;;;;;;1.13;1.02;;;5.70;99.90;;;5.69;82.22;101422.56;6187725;23;20175;-64
2024/02/01 01:23:05;;;;;;;1.92;1.83;;;5.60;99.90;;;5.72;81.89;101418.72;6188421;23;20268;-63
2024/02/01 01:25:34;;;;;;;4.28;1.90;;;5.70;99.90;;;5.75;81.30;101421.94;6160807;23;20253;-64
2024/02/01 01:28:03;;;;;;;1.50;1.40;;;5.70;99.90;;;5.70;81.85;101408.16;6187385;23;20181;-62
2024/02/01 01:30:35;;;;;;;2.20;1.30;;;5.70;99.90;;;5.82;81.77;101414.94;6187091;23;20495;-63
2024/02/01 01:33:05;;;;;;;3.33;1.88;;;5.70;99.90;;;5.73;81.67;101415.03;6186528;23;20223;-63
2024/02/01 01:35:34;;;;;;;1.05;0.95;;;5.70;99.90;;;5.74;81.97;101408.66;6186625;23;20157;-64
2024/02/01 01:38:03;;;;;;;3.70;2.22;;;5.70;99.90;;;5.75;81.59;101408.53;6186470;23;20632;-64
2024/02/01 01:40:32;;;;;;;2.97;2.25;;;5.70;99.90;;;5.82;82.15;101396.13;6186115;23;20549;-63
2024/02/01 01:43:00;;;;;;;1.23;1.13;;;5.70;99.90;;;5.77;81.45;101394.91;6186607;23;20180;-62
2024/02/01 01:45:28;;;;;;;2.67;2.47;;;5.70;99.90;;;5.78;81.81;101396.59;6186156;23;20149;-64
2024/02/01 01:47:58;;;;;;;1.45;1.35;;;5.70;99.90;;;5.78;81.60;101394.75;6186055;23;20184;-63
2024/02/01 01:50:28;;;;;;;3.33;2.97;;;5.70;99.90;;;5.77;81.55;101387.69;6186285;23;20157;-65
2024/02/01 01:52:58;;;;;;;3.05;2.85;;;5.70;99.90;;;5.67;81.92;101382.44;6185842;23;20242;-65
2024/02/01 01:55:30;;;;;;;0.93;0.80;;;5.70;99.90;;;5.84;81.56;101385.22;6186231;23;20206;-63
2024/02/01 01:57:58;;;;;;;2.33;1.77;;;5.70;99.90;;;5.84;81.33;101385.22;6186017;23;20195;-63
2024/02/01 02:00:27;;;;;;;3.83;2.65;;;5.80;99.90;;;5.77;81.86;101374.28;6186389;23;20219;-67
2024/02/01 02:02:56;;;;;;;3.33;2.17;;;5.70;99.90;;;5.92;82.00;101390.69;6186161;23;20179;-64
2024/02/01 02:05:29;;;;;;;1.27;1.17;;;5.80;99.90;;;5.94;81.32;101369.88;6185222;23;20180;-58
2024/02/01 02:07:58;;;;;;;2.45;1.77;;;5.90;99.90;;;5.90;81.24;101374.75;6185475;23;20725;-61
2024/02/01 02:10:27;;;;;;;1.10;0.88;;;5.90;99.90;;;5.94;81.43;101369.88;6185961;23;20149;-64
2024/02/01 02:12:56;;;;;;;1.23;1.13;;;5.90;99.90;;;5.98;80.94;101376.59;6185902;23;20609;-64
2024/02/01 02:15:32;;;;;;;1.80;1.45;;;5.90;99.90;;;5.90;81.40;101387.31;6185401;23;20592;-64
2024/02/01 02:18:09;;;;;;;1.67;1.52;;;5.90;99.90;;;5.84;82.21;101375.34;6185483;23;20267;-64
2024/02/01 02:20:43;;;;;;;2.20;1.88;;;5.80;99.90;;;5.91;82.87;101376.41;6185578;23;20156;-64
2024/02/01 02:23:14;;;;;;;4.25;1.98;;;5.90;99.90;;;5.83;83.59;101375.50;6185719;23;20196;-65
2024/02/01 02:25:48;;;;;;;2.53;2.33;;;5.80;99.90;;;5.98;84.15;101379.28;6185541;23;20178;-63
2024/02/01 02:28:21;;;;;;;1.30;1.20;;;5.90;99.90;;;5.80;86.89;101378.50;6185432;23;20185;-64
2024/02/01 02:30:49;;;;;;;2.67;1.85;;;5.80;99.90;;;5.66;89.37;101374.56;6185735;23;20185;-65
2024/02/01 02:33:18;;;;;;;5.95;2.97;;;5.70;99.90;;;5.59;91.21;101363.63;6185310;23;20187;-64
2024/02/01 02:35:51;;;;;;;5.40;1.02;;;5.70;99.90;;;5.47;93.72;101366.72;6185206;23;20240;-65
2024/02/01 02:38:22;;;;;;;1.30;0.85;;;5.60;99.90;;;5.31;96.55;101358.56;6185045;23;20188;-63
2024/02/01 02:40:51;;;;;;;1.17;1.05;;;5.40;99.90;;;5.31;97.57;101356.72;6185494;23;20630;-64
2024/02/01 02:43:19;;;;;;;1.30;0.95;;;5.30;99.90;;;5.31;98.14;101354.03;6185319;23;20275;-64
2024/02/01 02:45:48;;;;;;;1.85;1.42;;;5.40;99.90;;;5.18;98.56;101356.28;6185189;23;20161;-65
2024/02/01 02:48:16;;;;;;;2.60;2.40;;;5.20;99.90;;;5.24;99.29;101355.63;6185018;23;20242;-64
2024/02/01 02:50:45;;;;;;;1.75;1.65;;;5.20;99.90;;;5.19;100.00;101352.59;6185125;23;20168;-65
2024/02/01 02:53:14;;;;;;;1.83;1.27;;;5.20;99.90;;;5.21;100.00;101345.22;6184968;23;20174;-60
2024/02/01 02:55:44;;;;;;;2.05;1.83;;;5.20;99.90;;;5.16;100.00;101348.38;6184747;23;20168;-64
2024/02/01 02:58:12;;;;;;;1.38;1.25;;;5.20;99.90;;;5.17;100.00;101365.31;6185287;23;20194;-64
2024/02/01 03:00:40;;;;;;;1.65;1.55;;;5.10;99.90;;;5.06;100.00;101354.84;6185221;23;20165;-64
2024/02/01 03:03:09;;;;;;;1.13;0.90;;;5.10;99.90;;;5.19;100.00;101363.31;6185424;23;20171;-64
2024/02/01 03:05:38;;;;;;;5.32;3.17;;;5.10;99.90;;;5.15;100.00;101367.31;6184849;23;20168;-63
2024/02/01 03:08:09;;;;;;;1.75;1.27;;;5.10;99.90;;;5.20;100.00;101359.63;6158227;23;20242;-65
2024/02/01 03:10:38;;;;;;;2.47;2.38;;;5.10;99.90;;;5.14;100.00;101354.88;6184744;23;20519;-64
2024/02/01 03:13:09;;;;;;;2.13;1.67;;;5.10;99.90;;;5.14;100.00;101365.63;6184924;23;20165;-64
2024/02/01 03:15:38;;;;;;;0.90;0.70;;;5.10;99.90;;;5.16;100.00;101352.91;6184581;23;20152;-64
2024/02/01 03:18:10;;;;;;;1.77;1.67;;;5.20;99.90;;;5.08;100.00;101361.72;6185023;23;20584;-64
2024/02/01 03:20:39;;;;;;;1.65;1.33;;;5.10;99.90;;;5.04;100.00;101359.50;6185296;23;20490;-64
2024/02/01 03:23:07;;;;;;;1.63;1.52;;;5.10;99.90;;;5.08;100.00;101350.97;6185115;23;20203;-65
2024/02/01 03:25:37;;;;;;;4.82;3.65;;;5.10;99.90;;;5.08;100.00;101348.31;6185445;23;20187;-64
2024/02/01 03:28:07;;;;;;;2.17;1.40;;;5.10;99.90;;;5.13;100.00;101343.31;6185130;23;20246;-64
2024/02/01 03:30:46;;;;;;;1.40;1.30;;;5.10;1.00;;;5.03;100.00;101347.09;6188181;23;20290;-65
2024/02/01 03:33:15;;;;;;;1.63;1.50;;;5.10;1.00;;;5.04;100.00;101330.84;6189664;23;20178;-64
2024/02/01 03:35:43;;;;;;;2.90;2.70;;;5.10;1.00;;;5.03;100.00;101347.97;6187571;23;20161;-66
2024/02/01 03:38:15;;;;;;;2.40;1.20;;;5.00;1.00;;;5.03;100.00;101331.03;6185910;23;20274;-62
2024/02/01 03:40:43;;;;;;;3.40;3.10;;;5.00;1.00;;;5.06;100.00;101336.06;6185811;23;20521;-65
2024/02/01 03:43:13;;;;;;;0.85;0.70;;;5.00;1.00;;;5.18;100.00;101340.19;6186141;23;20200;-64
2024/02/01 03:45:48;;;;;;;5.18;2.47;;;5.10;1.00;;;5.13;100.00;101331.78;6186031;23;20179;-65
2024/02/01 03:48:18;;;;;;;2.08;1.88;;;5.10;1.00;;;5.22;100.00;101331.66;6186269;23;20192;-65
2024/02/01 03:50:49;;;;;;;3.33;3.03;;;5.20;1.00;;;5.23;100.00;101324.44;6185628;23;20179;-66
2024/02/01 03:53:18;;;;;;;3.38;3.08;;;5.20;1.00;;;5.23;100.00;101332.47;6185468;23;20545;-63
2024/02/01 03:55:48;;;;;;;2.03;1.52;;;5.20;1.00;;;5.13;100.00;101337.13;6184721;23;20156;-66
2024/02/01 03:59:09;;;;;;;1.98;1.35;;;5.20;1.00;;;5.17;100.00;101327.78;6184405;23;20660;-65
2024/02/01 04:01:41;;;;;;;4.03;3.10;;;5.20;1.00;;;4.97;100.00;101321.75;6184580;23;20155;-62
2024/02/01 04:04:17;;;;;;;3.10;2.20;;;5.00;1.00;;;5.12;100.00;101330.06;6184628;23;20176;-62
2024/02/01 04:06:51;;;;;;;1.40;0.93;;;5.00;44.40;;;5.11;100.00;101325.69;6184898;23;20164;-64
2024/02/01 04:09:20;;;;;;;2.20;2.00;;;5.10;49.00;;;5.14;100.00;101326.22;6184676;23;20468;-63
2024/02/01 04:11:49;;;;;;;1.15;1.05;;;5.10;91.70;;;5.17;100.00;101319.72;6158310;23;20516;-65
2024/02/01 04:14:19;;;;;;;3.25;2.72;;;5.10;93.40;;;5.18;100.00;101329.47;6184918;23;20147;-64
2024/02/01 04:16:48;;;;;;;1.85;1.38;;;5.10;92.10;;;5.16;100.00;101318.03;6184372;23;20472;-66
2024/02/01 04:19:16;;;;;;;1.25;0.80;;;5.10;99.90;;;5.15;100.00;101324.38;6184317;23;20183;-65
2024/02/01 04:21:46;;;;;;;4.50;2.50;;;5.10;99.90;;;5.21;100.00;101329.13;6184413;23;20152;-64
2024/02/01 04:24:16;;;;;;;5.40;3.70;;;5.20;99.90;;;5.25;100.00;101330.50;6184312;23;20184;-62
2024/02/01 04:26:45;;;;;;;1.15;0.95;;;5.20;99.90;;;5.37;100.00;101331.94;6184375;23;20156;-64
2024/02/01 04:29:14;;;;;;;2.78;2.58;;;5.30;99.90;;;5.35;100.00;101346.50;6185756;23;20268;-65
2024/02/01 04:31:44;;;;;;;2.88;2.20;;;5.30;52.70;;;5.40;100.00;101334.28;6186439;23;20186;-64
2024/02/01 04:34:13;;;;;;;2.03;1.90;;;5.30;1.00;;;5.35;100.00;101335.75;6187552;23;20156;-64
2024/02/01 04:36:48;;;;;;;4.80;2.75;;;5.30;1.00;;;5.33;100.00;101335.91;6186634;23;20208;-63
2024/02/01 04:39:17;;;;;;;3.55;3.25;;;5.30;1.00;;;5.36;100.00;101343.66;6186191;23;20164;-61
2024/02/01 04:41:45;;;;;;;3.15;2.00;;;5.30;78.30;;;5.33;100.00;101348.47;6186392;23;20152;-63
2024/02/01 04:44:14;;;;;;;1.85;1.73;;;5.30;99.90;;;5.37;100.00;101344.50;6186858;23;20188;-63
2024/02/01 04:46:44;;;;;;;4.47;2.85;;;5.30;99.90;;;5.27;100.00;101352.66;6186613;23;20557;-64
2024/02/01 04:49:14;;;;;;;1.50;1.40;;;5.30;99.90;;;5.34;100.00;101355.53;6186048;23;20182;-64
2024/02/01 04:51:43;;;;;;;3.95;2.63;;;5.30;6.50;;;5.41;100.00;101360.16;6186097;23;20244;-61
2024/02/01 04:54:11;;;;;;;2.35;2.15;;;5.30;99.90;;;5.40;100.00;101361.13;6186357;23;20233;-64
2024/02/01 04:56:42;;;;;;;2.75;2.50;;;5.40;1.00;;;5.41;100.00;101362.81;6186593;23;20554;-65
2024/02/01 04:59:11;;;;;;;2.10;1.90;;;5.40;1.00;;;5.41;100.00;101343.19;6188334;23;20220;-62
2024/02/01 05:01:40;;;;;;;2.17;1.63;;;5.40;1.00;;;5.42;100.00;101352.94;6161485;23;20251;-63
2024/02/01 05:04:13;;;;;;;2.15;1.95;;;5.40;1.00;;;5.52;100.00;101354.50;6186818;23;20222;-60
2024/02/01 05:06:42;;;;;;;1.30;1.20;;;5.40;8.50;;;5.42;100.00;101364.50;6186589;23;20525;-64
2024/02/01 05:09:25;;;;;;;2.80;2.20;;;5.40;99.90;;;5.49;100.00;101362.88;6186239;23;20195;-64
2024/02/01 05:11:54;;;;;;;1.70;1.38;;;5.50;1.00;;;5.60;100.00;101362.63;6160270;23;20169;-64
2024/02/01 05:14:23;;;;;;;4.78;3.15;;;5.50;66.00;;;5.63;100.00;101353.38;6186310;23;20507;-64
2024/02/01 05:16:52;;;;;;;2.92;2.28;;;5.50;1.00;;;5.65;100.00;101362.13;6186248;23;20211;-61
2024/02/01 05:19:22;;;;;;;4.90;2.75;;;5.60;1.00;;;5.69;100.00;101355.44;6186272;23;20157;-64
2024/02/01 05:21:52;;;;;;;4.28;1.80;;;5.60;1.20;;;5.71;100.00;101349.94;6186518;23;20535;-65
2024/02/01 05:24:22;;;;;;;3.17;2.20;;;5.70;99.90;;;5.69;100.00;101356.28;6185996;23;20177;-66
2024/02/01 05:26:52;;;;;;;2.95;2.63;;;5.60;99.90;;;5.72;100.00;101356.94;6186065;23;20667;-61
2024/02/01 05:29:23;;;;;;;4.93;2.88;;;5.70;99.90;;;5.77;100.00;101352.78;6186098;23;20157;-64
2024/02/01 05:31:53;;;;;;;1.50;1.40;;;5.70;1.00;;;5.83;100.00;101356.69;6186538;23;20157;-64
2024/02/01 05:34:24;;;;;;;2.45;2.25;;;5.80;1.00;;;5.85;100.00;101360.06;6185917;23;20154;-65
2024/02/01 05:36:54;;;;;;;1.83;1.52;;;5.80;99.90;;;5.81;100.00;101358.72;6185581;23;20161;-63
2024/02/01 05:39:25;;;;;;;3.03;2.10;;;5.80;99.90;;;5.86;100.00;101359.03;6185890;23;20154;-65
2024/02/01 05:41:55;;;;;;;5.78;3.33;;;5.80;99.90;;;5.84;100.00;101369.97;6186190;23;20157;-65
2024/02/01 05:44:25;;;;;;;2.15;1.95;;;5.80;1.00;;;5.83;100.00;101373.66;6185563;23;20220;-65
2024/02/01 05:46:55;;;;;;;3.17;2.60;;;5.80;1.00;;;5.88;100.00;101389.31;6185909;23;20515;-65
2024/02/01 05:49:28;;;;;;;2.67;1.92;;;5.80;1.00;;;5.76;100.00;101386.00;6186879;23;20150;-63
2024/02/01 05:52:03;;;;;;;2.08;1.88;;;5.80;99.90;;;5.79;100.00;101383.03;6186772;23;20199;-63
2024/02/01 05:54:33;;;;;;;2.30;2.10;;;5.70;1.00;;;5.88;100.00;101394.69;6190720;23;20484;-65
2024/02/01 05:57:03;;;;;;;1.58;1.48;;;5.80;99.90;;;5.92;100.00;101398.72;6161242;23;20157;-62
2024/02/01 05:59:32;;;;;;;3.20;2.90;;;5.80;99.90;;;6.01;100.00;101392.41;6187226;23;20218;-64
2024/02/01 06:02:04;;;;;;;2.83;2.55;;;5.90;1.00;;;5.95;100.00;101403.81;6186274;23;20168;-63
2024/02/01 06:04:35;;;;;;;3.88;3.58;;;5.90;1.00;;;5.94;100.00;101396.75;6186378;23;20191;-64
2024/02/01 06:07:05;;;;;;;2.17;1.52;;;5.90;99.90;;;5.89;100.00;101396.38;6186306;23;20169;-61
2024/02/01 06:09:34;;;;;;;1.55;1.45;;;5.90;1.00;;;5.92;100.00;101404.09;6186258;23;20560;-65
2024/02/01 06:12:03;;;;;;;6.15;5.75;;;5.90;99.90;;;5.96;100.00;101405.47;6186989;23;20668;-64
2024/02/01 06:14:31;;;;;;;2.80;2.10;;;5.90;1.00;;;5.98;100.00;101403.47;6188631;23;20150;-65
2024/02/01 06:17:00;;;;;;;8.07;2.55;;;5.90;60.30;;;5.89;100.00;101396.38;6188564;23;20655;-62
2024/02/01 06:19:29;;;;;;;3.10;2.03;;;5.90;99.90;;;5.88;100.00;101402.75;6187594;23;20157;-64
2024/02/01 06:21:59;;;;;;;4.72;2.88;;;5.90;1.00;;;5.94;100.00;101412.84;6186794;23;20502;-65
2024/02/01 06:24:28;;;;;;;4.05;2.85;;;5.80;1.00;;;5.90;100.00;101408.81;6186654;23;20177;-64
2024/02/01 06:26:58;;;;;;;4.13;3.03;;;5.80;7.40;;;6.01;100.00;101411.19;6186535;23;20157;-64
2024/02/01 06:29:28;;;;;;;4.18;2.67;;;5.90;99.90;;;5.99;100.00;101411.38;6186556;23;20155;-64
2024/02/01 06:31:57;;;;;;;3.72;2.92;;;5.90;99.90;;;6.00;100.00;101412.22;6186902;23;20165;-63
2024/02/01 06:34:38;;;;;;;2.25;1.90;;;5.90;99.90;;;6.05;100.00;101420.66;6186711;23;20152;-64
2024/02/01 06:37:08;;;;;;;4.63;4.13;;;6.00;99.90;;;5.97;100.00;101417.91;6187234;23;20456;-64
2024/02/01 06:40:09;;;;;;;5.13;2.22;;;6.00;99.90;;;6.10;100.00;101423.66;6187341;23;20146;-65
2024/02/01 06:42:54;;;;;;;3.45;3.08;;;6.00;1.00;;;6.06;100.00;101438.44;6187574;23;20500;-65
2024/02/01 06:45:29;;;;;;;2.33;2.22;;;6.00;1.00;;;6.08;100.00;101436.44;6187364;23;20663;-62
2024/02/01 06:48:08;;;;;;;2.72;2.53;;;6.00;1.00;;;6.10;100.00;101443.31;6186541;23;20662;-63
2024/02/01 06:50:54;;;;;;;2.47;2.28;;;6.10;1.00;;;6.16;100.00;101452.59;6186338;23;20215;-65
2024/02/01 06:53:34;;;;;;;2.55;1.35;;;6.10;1.00;;;6.27;100.00;101456.84;6185982;23;20200;-65
2024/02/01 06:56:07;;;;;;;3.78;3.47;;;6.10;1.00;;;6.23;100.00;101456.34;6187421;23;20151;-64
2024/02/01 06:58:49;;;;;;;2.92;2.72;;;6.10;1.00;;;6.29;100.00;101469.16;6186604;23;20216;-63
2024/02/01 07:01:38;;;;;;;3.85;2.33;;;6.20;1.00;;;6.30;100.00;101468.13;6185349;23;20176;-63
2024/02/01 07:04:15;;;;;;;1.70;1.58;;;6.20;99.90;;;6.36;100.00;101470.19;6185498;23;20200;-64
2024/02/01 07:07:04;;;;;;;1.80;1.70;;;6.30;99.90;;;6.37;100.00;101477.25;6185129;23;20168;-63
2024/02/01 07:09:47;;;;;;;3.50;3.30;;;6.30;99.90;;;6.26;100.00;101482.91;6185400;23;20150;-63
2024/02/01 07:12:18;;;;;;;6.38;2.92;;;6.30;1.00;;;6.31;100.00;101485.94;6185085;23;20527;-63
2024/02/01 07:15:09;;;;;;;2.55;2.35;;;6.30;1.00;;;6.37;100.00;101490.69;6185062;23;20465;-64
2024/02/01 07:17:43;;;;;;;4.82;3.17;;;6.30;1.00;;;6.36;100.00;101501.59;6185083;23;20181;-65
2024/02/01 07:20:23;;;;;;;4.90;4.50;;;6.30;1.00;;;6.44;100.00;101507.00;6185581;23;20495;-65
2024/02/01 07:23:00;;;;;;;3.10;2.90;;;6.30;1.00;;;6.48;100.00;101511.91;6185860;23;20157;-62
2024/02/01 07:25:47;;;;;;;2.97;2.78;;;6.40;99.90;;;6.47;100.00;101506.69;6185051;23;20558;-64
2024/02/01 07:58:53;;;;;;;1.55;1.30;;;6.70;1.00;;;6.73;100.00;101560.44;6186146;23;20524;-63
2024/02/01 08:01:24;;;;;;;2.65;1.65;;;6.70;99.90;;;6.71;100.00;101562.44;6186792;23;20208;-60
2024/02/01 08:04:12;;;;;;;1.85;1.48;;;6.70;59.60;;;6.85;100.00;101572.59;6190045;23;20156;-64
2024/02/01 08:09:27;;;;;;;1.38;1.27;;;6.90;6.40;;;6.99;100.00;101588.13;6192443;23;20149;-62
2024/02/01 08:11:56;;;;;;;1.90;1.35;;;6.90;1.00;;;7.09;100.00;101585.31;6196219;23;20161;-67
2024/02/01 08:14:27;;;;;;;3.45;1.90;;;6.90;1.00;;;7.14;100.00;101597.28;6199801;23;20479;-64
2024/02/01 08:16:56;;;;;;;4.75;4.28;;;7.00;1.00;;;7.01;100.00;101602.28;6194200;23;20184;-66
2024/02/01 08:19:24;;;;;;;3.38;3.10;;;7.00;1.00;;;6.98;100.00;101611.50;6165359;23;20166;-64
2024/02/01 08:22:08;;;;;;;1.73;1.33;;;6.90;1.00;;;6.95;100.00;101613.69;6190053;23;20154;-63
2024/02/01 08:24:37;;;;;;;1.45;0.63;;;6.90;1.00;;;6.86;100.00;101615.50;6189029;23;20160;-63
2024/02/01 08:27:07;;;;;;;2.10;1.70;;;6.90;1.00;;;6.84;100.00;101616.63;6189618;23;20685;-64
2024/02/01 08:29:39;;;;;;;2.45;2.15;;;6.80;1.00;;;6.98;100.00;101610.66;6191253;23;20154;-64
2024/02/01 08:32:08;;;;;;;3.35;2.30;;;6.90;1.00;;;7.03;100.00;101616.38;6193118;23;20145;-64
2024/02/01 08:34:38;;;;;;;2.13;1.98;;;6.90;1.00;;;7.12;100.00;101628.03;6189632;23;20147;-64
2024/02/01 08:37:09;;;;;;;1.40;1.30;;;7.00;1.00;;;7.02;100.00;101625.47;6188732;23;20156;-64
2024/02/01 08:39:44;;;;;;;0.90;0.60;;;7.00;1.00;;;6.91;100.00;101628.47;6188917;23;20184;-64
2024/02/01 08:42:13;;;;;;;1.73;1.33;;;6.90;1.00;;;6.99;100.00;101636.56;6188993;23;20157;-66
2024/02/01 08:44:44;;;;;;;1.40;1.15;;;7.00;1.00;;;6.87;100.00;101632.47;6187890;23;20161;-64
2024/02/01 08:47:13;;;;;;;0.90;0.70;;;6.90;99.90;;;6.83;100.00;101631.94;6188137;23;20272;-63
2024/02/01 08:49:42;;;;;;;1.63;1.52;;;6.90;99.90;;;6.92;100.00;101630.16;6189267;23;20165;-64
2024/02/01 08:52:13;;;;;;;3.72;3.08;;;6.90;99.90;;;7.00;100.00;101638.25;6190860;23;20165;-65
2024/02/01 08:54:43;;;;;;;1.25;1.15;;;6.90;99.90;;;7.08;100.00;101632.06;6190975;23;20535;-64
2024/02/01 08:57:17;;;;;;;4.00;1.92;;;7.00;99.90;;;7.09;100.00;101629.22;6191888;23;20235;-65
2024/02/01 09:01:22;;;;;;;2.28;2.17;;;7.00;99.90;;;7.21;100.00;101635.16;6191159;23;20578;-66
2024/02/01 09:03:54;;;;;;;4.60;2.47;;;7.10;99.90;;;7.42;100.00;101641.78;6191753;23;20216;-65
2024/02/01 09:06:23;;;;;;;3.13;1.10;;;7.30;99.90;;;7.29;100.00;101635.19;6191424;23;20487;-64
2024/02/01 09:08:52;;;;;;;1.52;1.23;;;7.30;99.90;;;7.30;100.00;101639.56;6191488;23;20185;-63
2024/02/01 09:11:22;;;;;;;3.45;1.73;;;7.30;99.90;;;7.21;100.00;101640.53;6187029;23;20595;-63
2024/02/01 09:13:51;;;;;;;1.75;1.00;;;7.20;99.90;;;7.16;100.00;101634.81;6186448;23;20176;-65
2024/02/01 09:16:30;;;;;;;1.15;0.93;;;7.20;99.90;;;7.18;100.00;101633.63;6187205;23;20166;-65
2024/02/01 09:19:02;;;;;;;5.35;1.75;;;7.10;99.90;;;7.22;100.00;101636.81;6186196;23;20208;-61
2024/02/01 09:21:32;;;;;;;1.00;0.60;;;7.20;99.90;;;7.38;99.40;101644.97;6186333;23;20149;-64
2024/02/01 09:24:01;;;;;;;0.80;0.55;;;7.30;99.90;;;7.55;99.28;101652.06;6186386;23;20150;-64
2024/02/01 09:26:30;;;;;;;1.30;1.20;;;7.40;99.90;;;7.66;96.96;101646.41;6186295;23;20193;-65
2024/02/01 09:28:59;;;;;;;7.57;2.75;;;7.50;99.90;;;7.88;96.98;101655.72;6185603;23;20177;-65
2024/02/01 09:31:27;;;;;;;1.63;0.88;;;7.60;99.90;;;7.96;95.55;101642.25;6186154;23;20154;-64
2024/02/01 09:34:47;;;;;;;0.95;0.77;;;7.80;99.90;;;8.02;93.51;101651.50;6185489;23;20192;-65
2024/02/01 09:37:22;;;;;;;4.22;3.80;;;7.90;99.90;;;8.04;91.11;101657.56;6185756;23;20173;-61
2024/02/01 09:39:52;;;;;;;1.38;1.25;;;7.90;99.90;;;8.12;91.76;101655.75;6185696;23;20228;-64
2024/02/01 09:42:21;;;;;;;2.38;1.88;;;8.00;99.90;;;8.21;91.58;101660.13;6185848;23;20154;-64
2024/02/01 09:44:50;;;;;;;3.90;1.00;;;8.10;99.90;;;8.14;91.45;101659.09;6185871;23;20229;-65
2024/02/01 09:47:20;;;;;;;1.30;1.02;;;8.10;99.90;;;7.97;90.89;101664.66;6185616;23;20216;-66
2024/02/01 09:49:50;;;;;;;1.75;1.23;;;8.00;99.90;;;8.09;89.95;101669.53;6185899;23;20169;-66
2024/02/01 09:52:19;;;;;;;1.33;0.95;;;8.00;99.90;;;8.46;89.64;101655.59;6185936;23;20181;-64
2024/02/01 09:54:47;;;;;;;1.45;1.33;;;8.20;99.90;;;8.45;87.45;101663.84;6186245;23;20224;-64
2024/02/01 09:57:17;;;;;;;2.90;0.75;;;8.30;99.90;;;8.37;86.15;101674.66;6186154;23;20216;-64
2024/02/01 09:59:46;;;;;;;1.55;1.45;;;8.30;99.90;;;8.01;87.30;101664.16;6185959;23;20158;-61
2024/02/01 10:02:14;;;;;;;2.85;0.90;;;8.10;99.90;;;8.20;87.43;101677.28;6185842;23;20256;-63
2024/02/01 10:04:42;;;;;;;1.90;1.13;;;8.10;99.90;;;8.40;86.51;101677.84;6185311;23;20177;-63
2024/02/01 10:07:13;;;;;;;2.00;1.10;;;8.30;99.90;;;8.56;85.57;101677.84;6185141;23;20825;-63
2024/02/01 10:09:51;;;;;;;1.98;1.88;;;8.40;99.90;;;8.71;84.99;101691.50;6185229;23;20154;-66
2024/02/01 10:12:25;;;;;;;3.85;0.90;;;8.50;99.90;;;8.69;83.60;101670.06;6185287;23;20153;-65
2024/02/01 10:14:53;;;;;;;1.80;1.50;;;8.50;99.90;;;8.89;82.26;101677.78;6185066;23;20156;-66
2024/02/01 10:17:22;;;;;;;1.88;0.90;;;8.70;99.90;;;8.94;80.87;101687.06;6184958;23;20268;-65
2024/02/01 10:19:52;;;;;;;3.40;0.95;;;8.80;99.90;;;8.86;80.39;101695.16;6185217;23;20645;-65
2024/02/01 10:22:22;;;;;;;1.65;0.73;;;;;;;8.73;81.52;101675.94;6185514;23;20622;-64
2024/02/01 10:24:58;;;;;;;13.55;1.30;;;8.70;1.00;;;9.10;80.05;101680.78;6184998;23;20154;-66
2024/02/01 10:27:26;;;;;;;1.73;1.63;;;8.90;1.00;;;8.97;80.47;101675.06;6184684;23;20196;-64
2024/02/01 10:29:57;;;;;;;2.50;0.85;;;8.90;99.90;;;8.79;80.08;101682.53;6185136;23;20189;-65
2024/02/01 10:32:33;;;;;;;2.33;0.98;;;8.70;99.90;;;8.70;80.82;101673.59;6185072;23;20158;-65
2024/02/01 10:35:04;;;;;;;1.25;0.70;;;;;;;8.20;78.05;101669.22;6184634;23;20177;-63
2024/02/01 10:37:34;;;;;;;1.00;0.90;;;8.40;99.90;;;8.04;80.37;101677.28;6184528;23;20197;-65
2024/02/01 10:40:10;;;;;;;1.10;0.75;;;8.10;99.90;;;8.19;80.23;101681.00;6184589;23;20224;-64
2024/02/01 10:42:45;;;;;;;0.90;0.60;;;8.10;99.90;;;8.36;77.35;101681.91;6185080;23;20154;-60
2024/02/01 10:45:17;;;;;;;1.33;0.80;;;8.20;99.90;;;8.60;76.97;101683.75;6184918;23;20228;-66
2024/02/01 10:47:53;;;;;;;6.03;2.58;;;8.40;99.90;;;8.22;75.27;101675.28;6184887;23;20197;-65
2024/02/01 10:50:22;;;;;;;1.10;0.85;;;8.20;99.90;;;8.04;76.42;101696.16;6185120;23;20188;-66
2024/02/01 10:52:53;;;;;;;2.88;1.92;;;8.00;99.90;;;7.90;76.99;101682.47;6184980;23;20196;-66
2024/02/01 10:55:26;;;;;;;0.80;0.47;;;7.90;99.90;;;7.95;76.20;101678.28;6185029;23;20650;-62
2024/02/01 10:57:59;;;;;;;1.90;0.80;;;7.90;99.90;;;8.02;74.95;101700.88;6157341;23;20216;-64
2024/02/01 11:00:29;;;;;;;6.85;2.10;;;7.90;99.90;;;7.81;72.52;101676.22;6184596;23;20519;-63
2024/02/01 11:02:58;;;;;;;4.72;0.80;;;7.80;96.70;;;7.59;73.52;101696.56;6184747;23;20506;-63
2024/02/01 11:05:31;;;;;;;6.35;0.80;;;7.60;95.50;;;7.45;74.94;101688.25;6182501;23;20173;-63
2024/02/01 11:08:02;;;;;;;5.38;1.30;;;7.50;98.10;;;7.58;75.45;101681.41;6184235;23;20657;-63
2024/02/01 11:10:31;;;;;;;0.80;0.55;;;7.50;99.90;;;7.47;75.69;101678.16;6183413;23;20153;-64
2024/02/01 11:12:59;;;;;;;1.67;1.58;;;7.40;99.90;;;7.46;75.58;101681.84;6183620;23;20154;-65
2024/02/01 11:15:30;;;;;;;1.10;0.75;;;7.40;99.90;;;7.46;75.41;101688.06;6183566;23;20161;-64
2024/02/01 11:18:10;;;;;;;2.30;1.67;;;7.40;99.90;;;7.66;75.77;101688.66;6183613;23;20184;-67